Wheeler, Wisconsin
Current Conditions -  °F | °C
As of 7:35 AM on Tuesday 21 Oct 2014 (Local Time) from KLUM Reporting Station
Haze Haze  
Wind Chill: 34°   Ceiling: Unl
Heat Index: 34°   Visibility: 5mi
Dew Point: 33°   Wind: 0mph
Humidity: 97%   Direction: NA
Pressure: 30.2"   Gusts: NA
Location:  45.04°N, 91.91°W
Report Text: KLUM 211235Z AUTO 00000KT 5SM BR CLR 01/01 A3020 RMK AO2 T00100006
Loading
Personal Weather Stations






























Interactive Weather Map
Tropical Storm Tracking
New forecast layout! Learn more

10-Day Weather Forecast

Advertisements
Track Severe Weather on mobile